Irun, Spain
Current Conditions -  °F | °C
As of 9:30 PM on Friday 28 Nov 2014 (Local Time) from LESO Reporting Station
Clear Clear  
Wind Chill: 68°   Ceiling: Unl
Heat Index: 68°   Visibility: 6mi
Dew Point: 46°   Wind: 13mph
Humidity: 46%   Direction: 110°ESE
Pressure: 29.32"   Gusts: NA
Location:  43.34°N, 1.79°W
Report Text: LESO 282030Z 11011KT 070V160 CAVOK 20/08 Q0993
Loading
Personal Weather Stations






























Interactive Weather Map New forecast layout! Learn more

10-Day Weather Forecast

Advertisements
Track Severe Weather on mobile